Time;durP1;ratioP1;P1;durP2;ratioP2;P2;SDS_P1;SDS_P2;PMS_P1;PMS_P2;Temp;Humidity;BMP_temperature;BMP_pressure;BME280_temperature;BME280_humidity;BME280_pressure;Samples;Min_cycle;Max_cycle;Signal;HPM_P1;HPM_P2
2023/06/23 00:01:58;;;;;;;;;3.33;3.33;;;;;28.10;40.20;102084.13;5058437;28;46063;-75
2023/06/23 00:04:23;;;;;;;;;4.67;4.00;;;;;28.10;39.30;102073.41;5076745;28;45297;-75
2023/06/23 00:06:49;;;;;;;;;3.00;3.00;;;;;28.12;40.13;102075.88;5076966;28;45474;-75
2023/06/23 00:09:14;;;;;;;;;4.00;4.00;;;;;28.16;40.00;102083.34;5076844;28;45630;-74
2023/06/23 00:11:41;;;;;;;;;5.67;5.67;;;;;28.14;39.62;102084.53;5076688;28;45401;-75
2023/06/23 00:14:06;;;;;;;;;6.00;4.00;;;;;28.17;39.86;102093.03;5076714;28;45423;-75
2023/06/23 00:16:32;;;;;;;;;5.00;5.00;;;;;28.17;39.98;102087.69;5076226;28;45375;-75
2023/06/23 00:18:57;;;;;;;;;5.00;5.00;;;;;28.20;39.90;102099.00;5076686;28;45465;-75
2023/06/23 00:21:22;;;;;;;;;3.33;3.33;;;;;28.18;39.45;102100.00;5076456;28;45438;-75
2023/06/23 00:23:48;;;;;;;;;3.67;3.33;;;;;28.22;39.69;102105.00;5076411;28;45363;-75
2023/06/23 00:26:13;;;;;;;;;5.00;5.00;;;;;28.21;40.22;102104.16;5076619;28;45591;-75
2023/06/23 00:28:39;;;;;;;;;5.00;5.00;;;;;28.23;39.97;102095.94;5076439;28;45330;-75
2023/06/23 00:31:04;;;;;;;;;4.33;4.00;;;;;28.21;39.46;102101.47;5076127;28;49042;-75
2023/06/23 00:33:30;;;;;;;;;7.00;5.00;;;;;28.21;39.71;102095.31;5076380;28;45340;-76
2023/06/23 00:35:55;;;;;;;;;5.00;4.00;;;;;28.22;40.29;102095.13;5076732;28;45599;-76
2023/06/23 00:38:21;;;;;;;;;5.33;3.67;;;;;28.24;39.54;102100.25;5076324;28;45348;-75
2023/06/23 00:40:46;;;;;;;;;5.00;4.33;;;;;28.22;39.58;102095.13;5074899;28;48137;-75
2023/06/23 00:43:11;;;;;;;;;5.00;5.00;;;;;28.23;39.60;102095.94;5076297;28;45361;-76
2023/06/23 00:45:37;;;;;;;;;7.00;6.00;;;;;28.22;39.39;102100.47;5076039;28;45427;-75
2023/06/23 00:48:06;;;;;;;;;5.00;5.00;;;;;28.24;39.94;102105.63;5076186;28;45524;-75
2023/06/23 00:50:31;;;;;;;;;5.00;4.67;;;;;28.22;40.08;102102.31;5070180;28;45359;-76
2023/06/23 00:52:57;;;;;;;;;4.67;4.67;;;;;28.25;40.19;102104.59;5055743;28;45407;-75
2023/06/23 00:55:25;;;;;;;;;5.00;5.00;;;;;28.24;40.00;102109.13;5055952;28;45441;-75
2023/06/23 00:57:52;;;;;;;;;5.33;5.33;;;;;28.25;39.70;102108.13;5055230;28;45611;-75
2023/06/23 01:00:18;;;;;;;;;6.67;5.00;;;;;28.26;39.70;102111.63;5055206;28;45266;-76
2023/06/23 01:02:49;;;;;;;;;6.00;5.00;;;;;28.26;39.58;102111.63;5046161;28;45418;-75
2023/06/23 01:05:36;;;;;;;;;3.33;1.00;;;;;28.27;40.08;102118.63;5076038;28;45345;-75
2023/06/23 01:08:10;;;;;;;;;5.33;4.00;;;;;28.27;39.91;102122.13;5076064;28;45820;-75
2023/06/23 01:10:42;;;;;;;;;3.00;3.00;;;;;28.27;40.08;102121.28;5075662;28;46241;-75
2023/06/23 01:13:13;;;;;;;;;6.33;6.00;;;;;28.27;40.12;102124.81;5074417;28;45361;-75
2023/06/23 01:15:51;;;;;;;;;5.33;4.00;;;;;28.28;39.94;102120.28;5075431;28;45285;-75
2023/06/23 01:18:40;;;;;;;;;4.00;4.00;;;;;28.28;39.76;102122.97;5075708;28;45498;-75
2023/06/23 01:21:09;;;;;;;;;4.00;4.00;;;;;28.25;39.84;102116.16;5075534;28;47290;-75
2023/06/23 01:24:03;;;;;;;;;4.00;4.00;;;;;28.30;40.13;102123.59;5075627;28;45527;-75
2023/06/23 01:26:56;;;;;;;;;5.00;4.33;;;;;28.31;40.12;102117.22;5075724;28;45293;-75
2023/06/23 01:29:29;;;;;;;;;6.67;6.67;;;;;28.33;40.40;102119.69;5075204;28;45297;-75
2023/06/23 01:32:10;;;;;;;;;4.00;4.00;;;;;28.29;40.25;102124.59;5075589;28;46070;-75
2023/06/23 01:34:39;;;;;;;;;5.33;5.00;;;;;28.31;40.44;102130.63;5075382;28;45439;-76
2023/06/23 01:37:11;;;;;;;;;7.33;5.00;;;;;28.32;40.06;102131.41;5075550;28;45315;-75
2023/06/23 01:39:41;;;;;;;;;8.33;6.00;;;;;28.33;40.10;102120.53;5075411;28;45422;-75
2023/06/23 01:42:12;;;;;;;;;6.67;4.00;;;;;28.33;40.33;102123.22;5075278;28;45285;-75
2023/06/23 01:44:42;;;;;;;;;5.33;4.33;;;;;28.33;40.38;102117.88;5074977;28;45426;-75
2023/06/23 01:47:15;;;;;;;;;6.33;5.00;;;;;28.36;40.38;102128.19;5075516;28;45462;-75
2023/06/23 01:49:42;;;;;;;;;6.33;5.67;;;;;28.36;40.73;102130.03;5075470;28;45464;-75
2023/06/23 01:52:08;;;;;;;;;5.00;5.00;;;;;28.33;40.60;102127.72;5055908;28;47129;-76
2023/06/23 01:54:39;;;;;;;;;7.00;4.00;;;;;28.37;40.28;102126.31;5054984;28;45493;-75
2023/06/23 01:57:06;;;;;;;;;6.00;6.00;;;;;28.36;40.10;102128.19;5055112;28;45329;-75
2023/06/23 01:59:33;;;;;;;;;6.67;5.67;;;;;28.36;40.18;102128.19;5054452;28;45556;-75
2023/06/23 02:02:01;;;;;;;;;3.33;3.33;;;;;28.40;40.27;102137.47;5057353;28;46212;-75
2023/06/23 02:04:29;;;;;;;;;5.00;4.00;;;;;28.40;40.20;102132.13;5076885;28;45361;-75
2023/06/23 02:06:56;;;;;;;;;8.00;6.33;;;;;28.39;40.28;102129.66;5078716;28;45498;-76
2023/06/23 02:09:28;;;;;;;;;7.00;2.67;;;;;28.40;40.40;102139.31;5078637;28;45388;-75
2023/06/23 02:11:55;;;;;;;;;10.00;7.00;;;;;28.40;40.46;102145.50;5078377;28;45469;-75
2023/06/23 02:14:22;;;;;;;;;6.00;5.33;;;;;28.40;40.21;102136.63;5078415;28;45620;-75
2023/06/23 02:16:49;;;;;;;;;5.00;5.00;;;;;28.37;40.43;102139.69;5078361;27;45418;-75
2023/06/23 02:19:16;;;;;;;;;6.00;6.00;;;;;28.39;40.16;102153.75;5078583;28;45441;-75
2023/06/23 02:21:44;;;;;;;;;5.00;5.00;;;;;28.35;40.39;102139.06;5078320;28;46299;-76
2023/06/23 02:24:13;;;;;;;;;5.00;4.67;;;;;28.37;40.02;102142.38;5078121;28;45279;-76
2023/06/23 02:26:39;;;;;;;;;6.00;4.33;;;;;28.38;40.44;102152.91;5078368;28;45321;-75
2023/06/23 02:29:06;;;;;;;;;8.00;6.00;;;;;28.37;40.72;102143.22;5077985;28;45551;-75
2023/06/23 02:31:33;;;;;;;;;6.00;6.00;;;;;28.38;40.68;102142.19;5078152;28;45379;-75
2023/06/23 02:33:59;;;;;;;;;6.33;6.33;;;;;28.36;40.77;102138.91;5078199;28;45424;-76
2023/06/23 02:36:30;;;;;;;;;3.67;3.67;;;;;28.38;40.35;102139.53;5078190;28;45407;-75
2023/06/23 02:38:59;;;;;;;;;7.00;5.67;;;;;28.39;40.01;102141.16;5078128;28;45404;-75
2023/06/23 02:41:30;;;;;;;;;6.33;5.33;;;;;28.37;40.21;102143.22;5059397;28;46159;-75
2023/06/23 02:43:59;;;;;;;;;4.00;4.00;;;;;28.36;40.51;102149.59;5078072;28;45368;-75
2023/06/23 02:46:32;;;;;;;;;4.67;4.67;;;;;28.31;40.23;102146.66;5078149;28;45383;-75
2023/06/23 02:49:06;;;;;;;;;6.67;5.00;;;;;28.39;40.65;102148.38;5078110;28;45342;-75
2023/06/23 02:51:35;;;;;;;;;6.67;5.33;;;;;28.38;40.20;102154.75;5063364;28;46081;-75
2023/06/23 02:54:06;;;;;;;;;5.67;5.00;;;;;28.36;40.65;102148.75;5057568;28;45394;-74
2023/06/23 02:56:34;;;;;;;;;6.00;5.00;;;;;28.38;40.16;102158.25;5057292;28;45387;-75
2023/06/23 02:59:07;;;;;;;;;4.00;4.00;;;;;28.38;40.14;102160.94;5057523;28;45487;-76
2023/06/23 03:01:39;;;;;;;;;6.33;5.67;;;;;28.37;40.07;102161.94;5057338;28;46199;-75
2023/06/23 03:04:04;;;;;;;;;4.67;4.67;;;;;28.35;40.47;102152.44;5076802;28;45372;-75
2023/06/23 03:06:34;;;;;;;;;4.00;4.00;;;;;28.38;40.66;102160.94;5077110;28;45250;-75
2023/06/23 03:09:00;;;;;;;;;4.00;4.00;;;;;28.38;40.82;102163.59;5059638;28;45497;-76
2023/06/23 03:11:25;;;;;;;;;5.00;5.00;;;;;28.38;40.15;102170.81;5077040;28;45372;-75
2023/06/23 03:13:51;;;;;;;;;4.67;4.33;;;;;28.40;40.36;102174.13;5077717;28;45225;-75
2023/06/23 03:16:31;;;;;;;;;5.00;5.00;;;;;28.40;40.50;102180.31;5076478;28;45365;-75
2023/06/23 03:19:10;;;;;;;;;4.67;4.67;;;;;28.37;40.98;102174.50;5077627;28;45313;-75
2023/06/23 03:21:38;;;;;;;;;6.00;4.00;;;;;28.40;40.63;102182.97;5077454;28;45497;-75
2023/06/23 03:24:08;;;;;;;;;6.33;4.33;;;;;28.42;40.55;102181.97;5077273;28;45440;-75
2023/06/23 03:26:38;;;;;;;;;3.33;3.33;;;;;28.39;40.49;102183.97;5077081;28;45399;-75
2023/06/23 03:29:06;;;;;;;;;2.33;1.00;;;;;28.38;41.01;102187.69;5077584;28;45283;-75
2023/06/23 03:31:37;;;;;;;;;5.00;5.00;;;;;28.42;40.42;102195.34;5077082;28;47196;-75
2023/06/23 03:34:02;;;;;;;;;5.33;4.00;;;;;28.41;40.58;102191.84;5077211;28;45350;-75
2023/06/23 03:36:28;;;;;;;;;4.33;4.00;;;;;28.42;40.50;102196.16;5077203;28;45741;-75
2023/06/23 03:39:04;;;;;;;;;4.00;4.00;;;;;28.44;40.53;102186.09;5077373;28;45344;-75
2023/06/23 03:41:31;;;;;;;;;6.33;5.33;;;;;28.44;40.11;102180.75;5076794;28;46867;-76
2023/06/23 03:43:59;;;;;;;;;3.00;3.00;;;;;28.43;40.53;102188.97;5077038;28;45364;-75
2023/06/23 03:46:31;;;;;;;;;7.33;5.67;;;;;28.44;40.55;102201.34;5077249;28;45361;-75
2023/06/23 03:49:00;;;;;;;;;3.33;3.33;;;;;28.44;40.66;102206.69;5077085;28;45368;-76
2023/06/23 03:51:28;;;;;;;;;5.67;4.67;;;;;28.43;40.76;102205.84;5063190;28;46346;-75
2023/06/23 03:53:57;;;;;;;;;6.67;5.00;;;;;28.42;40.78;102206.84;5056278;28;45288;-76
2023/06/23 03:56:26;;;;;;;;;4.00;3.67;;;;;28.44;41.00;102207.53;5056721;28;45388;-75
2023/06/23 03:58:54;;;;;;;;;5.00;3.67;;;;;28.42;40.88;102203.38;5056550;28;45353;-75
2023/06/23 04:01:22;;;;;;;;;8.33;4.00;;;;;28.42;40.39;102200.69;5056423;28;46227;-76
2023/06/23 04:03:50;;;;;;;;;3.67;3.67;;;;;28.42;40.39;102208.72;5074351;28;45388;-75
2023/06/23 04:06:18;;;;;;;;;4.00;4.00;;;;;28.43;40.17;102213.03;5076897;28;45373;-75
2023/06/23 04:08:45;;;;;;;;;5.00;3.33;;;;;28.46;40.40;102218.06;5076363;28;45292;-75
2023/06/23 04:11:13;;;;;;;;;4.67;4.00;;;;;28.42;40.54;102211.41;5076426;28;46170;-75
2023/06/23 04:13:40;;;;;;;;;0.67;0.67;;;;;28.46;40.82;102212.69;5076569;28;45397;-75
2023/06/23 04:16:07;;;;;;;;;4.67;4.67;;;;;28.42;40.55;102225.59;5076542;28;45458;-75
2023/06/23 04:18:36;;;;;;;;;3.33;3.33;;;;;28.44;40.49;102225.44;5076598;28;45460;-75
2023/06/23 04:21:03;;;;;;;;;4.33;3.67;;;;;28.43;40.74;102215.72;5076343;28;47418;-75
2023/06/23 04:23:32;;;;;;;;;6.00;4.67;;;;;28.42;40.74;102216.75;5076008;28;45442;-75
2023/06/23 04:25:59;;;;;;;;;4.67;4.67;;;;;28.44;40.55;102225.44;5076583;28;45409;-75
2023/06/23 04:28:28;;;;;;;;;5.00;5.00;;;;;28.46;40.92;102228.75;5076313;28;45423;-76
2023/06/23 04:30:55;;;;;;;;;3.67;2.67;;;;;28.46;40.37;102223.41;5076221;28;45488;-76
2023/06/23 04:33:20;;;;;;;;;4.00;4.00;;;;;28.47;40.53;102217.06;5076324;28;45476;-75
2023/06/23 04:35:49;;;;;;;;;3.67;3.67;;;;;28.46;40.79;102220.72;5076455;28;45365;-76
2023/06/23 04:38:17;;;;;;;;;4.00;3.33;;;;;28.46;40.51;102231.44;5076140;28;45395;-75
2023/06/23 04:40:56;;;;;;;;;3.67;3.67;;;;;28.46;40.92;102232.28;5075323;28;46239;-75
2023/06/23 04:43:28;;;;;;;;;5.00;4.00;;;;;28.46;40.46;102242.97;5076209;28;45436;-75
2023/06/23 04:45:59;;;;;;;;;4.00;4.00;;;;;28.44;41.07;102242.31;5076303;28;45346;-75
2023/06/23 04:48:34;;;;;;;;;4.00;4.00;;;;;28.46;40.80;102251.00;5076351;28;45356;-75
2023/06/23 04:51:04;;;;;;;;;4.33;4.33;;;;;28.46;41.01;102251.00;5066252;28;45467;-75
2023/06/23 04:53:33;;;;;;;;;5.00;4.00;;;;;28.46;40.73;102259.03;5055320;28;45566;-75
2023/06/23 04:56:02;;;;;;;;;6.00;6.00;;;;;28.47;40.51;102259.88;5055407;28;45297;-75
2023/06/23 04:58:31;;;;;;;;;3.00;3.00;;;;;28.46;41.02;102264.41;5055742;28;45505;-76
2023/06/23 05:00:58;;;;;;;;;3.67;2.67;;;;;28.47;40.29;102263.38;5055571;28;46329;-76
2023/06/23 05:03:25;;;;;;;;;3.67;3.67;;;;;28.48;40.51;102266.88;5069979;28;45229;-76
2023/06/23 05:05:52;;;;;;;;;5.00;5.00;;;;;28.48;40.66;102261.53;5076216;28;45423;-76
2023/06/23 05:08:19;;;;;;;;;6.00;5.67;;;;;28.48;40.56;102261.53;5076134;28;45474;-74
2023/06/23 05:10:46;;;;;;;;;4.00;2.67;;;;;28.46;40.50;102255.53;5076529;28;45483;-75
2023/06/23 05:13:17;;;;;;;;;5.00;5.00;;;;;28.48;40.65;102259.69;5075793;28;45402;-75
2023/06/23 05:15:46;;;;;;;;;3.00;3.00;;;;;28.48;40.53;102265.03;5075786;28;45391;-76
2023/06/23 05:18:13;;;;;;;;;5.00;5.00;;;;;28.49;40.79;102266.69;5075844;28;45353;-76
2023/06/23 05:20:40;;;;;;;;;2.33;2.33;;;;;28.50;40.31;102264.81;5075401;28;47127;-75
2023/06/23 05:23:07;;;;;;;;;3.00;3.00;;;;;28.52;40.97;102273.53;5075287;28;45377;-75
2023/06/23 05:25:34;;;;;;;;;4.00;3.00;;;;;28.50;40.72;102278.22;5063688;28;45446;-74
2023/06/23 05:28:02;;;;;;;;;3.00;3.00;;;;;28.53;40.60;102275.16;5050784;28;45288;-76
2023/06/23 05:30:29;;;;;;;;;3.33;3.33;;;;;28.54;40.46;102279.50;5037371;28;46960;-74
2023/06/23 05:32:57;;;;;;;;;5.00;5.00;;;;;28.57;40.24;102283.66;5035112;28;45361;-73
2023/06/23 05:35:24;;;;;;;;;2.33;2.33;;;;;28.58;40.55;102287.97;5034729;28;45464;-73
2023/06/23 05:37:51;;;;;;;;;6.00;5.00;;;;;28.60;40.76;102286.75;5034903;28;45467;-72
2023/06/23 05:40:16;;;;;;;;;5.33;4.67;;;;;28.69;40.75;102289.31;5044164;28;46271;-73
2023/06/23 05:42:43;;;;;;;;;3.67;3.67;;;;;28.73;40.96;102271.84;5051594;28;45404;-79
2023/06/23 05:45:10;;;;;;;;;5.33;4.00;;;;;28.78;40.35;102284.69;5058737;28;45714;-73
2023/06/23 05:48:04;;;;;;;;;4.00;4.00;;;;;28.83;40.34;102275.03;5058531;28;45503;-73
2023/06/23 05:50:36;;;;;;;;;1.67;1.67;;;;;28.86;40.72;102276.50;5057911;28;45643;-74
2023/06/23 05:53:06;;;;;;;;;4.00;4.00;;;;;28.91;40.29;102266.03;5058526;28;45488;-73
2023/06/23 05:55:37;;;;;;;;;5.00;5.00;;;;;28.98;40.40;102271.44;5059453;28;45424;-73
2023/06/23 05:58:06;;;;;;;;;4.33;4.33;;;;;29.04;40.26;102269.84;5057798;28;45371;-73
2023/06/23 06:00:39;;;;;;;;;3.00;2.67;;;;;29.07;40.38;102275.63;5057912;28;47232;-73
2023/06/23 06:03:07;;;;;;;;;3.00;3.00;;;;;29.16;40.36;102275.53;5060081;28;45524;-72
2023/06/23 06:05:34;;;;;;;;;4.33;4.33;;;;;29.19;40.28;102283.19;5057287;28;45409;-72
2023/06/23 06:08:01;;;;;;;;;4.00;3.33;;;;;29.23;40.44;102286.28;5057520;28;45534;-72
2023/06/23 06:10:30;;;;;;;;;5.00;5.00;;;;;29.32;40.14;102293.19;5057381;28;45417;-72
2023/06/23 06:12:56;;;;;;;;;5.00;5.00;;;;;29.36;40.05;102282.88;5057505;28;45331;-72
2023/06/23 06:15:23;;;;;;;;;3.33;3.33;;;;;29.40;39.96;102285.00;5062061;28;45389;-73
2023/06/23 06:17:50;;;;;;;;;4.33;3.33;;;;;29.42;40.15;102290.16;5077789;27;45308;-74
2023/06/23 06:20:19;;;;;;;;;3.00;3.00;;;;;29.43;40.09;102277.56;5076183;28;46354;-73
2023/06/23 06:22:47;;;;;;;;;2.33;2.33;;;;;29.43;39.73;102285.63;5078553;28;45395;-74
2023/06/23 06:25:13;;;;;;;;;5.00;3.00;;;;;29.47;39.83;102276.97;5078325;28;45369;-74
2023/06/23 06:27:42;;;;;;;;;3.33;3.00;;;;;29.46;39.99;102280.66;5078357;27;45374;-74
2023/06/23 06:30:09;;;;;;;;;2.67;2.67;;;;;29.50;39.84;102287.31;5078026;28;47356;-73
2023/06/23 06:32:38;;;;;;;;;2.00;2.00;;;;;29.52;39.85;102287.09;5078264;28;45431;-73
2023/06/23 06:35:06;;;;;;;;;4.67;4.33;;;;;29.54;39.74;102292.25;5077983;28;45358;-74
2023/06/23 06:37:37;;;;;;;;;5.00;4.33;;;;;29.54;39.60;102294.94;5078231;28;45495;-73
2023/06/23 06:40:05;;;;;;;;;3.00;3.00;;;;;29.58;39.63;102291.69;5077915;28;46978;-74
2023/06/23 06:42:31;;;;;;;;;4.00;4.00;;;;;29.61;39.58;102298.50;5077928;27;45386;-73
2023/06/23 06:44:56;;;;;;;;;3.33;2.33;;;;;29.63;39.47;102299.13;5078131;28;45241;-74
2023/06/23 06:47:24;;;;;;;;;3.00;3.00;;;;;29.63;39.59;102304.50;5078074;28;45438;-73
2023/06/23 06:49:50;;;;;;;;;4.00;4.00;;;;;29.66;39.43;102304.13;5077306;28;47401;-73
2023/06/23 06:52:17;;;;;;;;;4.00;4.00;;;;;29.70;39.41;102315.25;5057518;28;45285;-74
2023/06/23 06:54:44;;;;;;;;;3.00;3.00;;;;;29.70;39.61;102313.41;5057637;28;45367;-74
2023/06/23 06:57:09;;;;;;;;;3.00;2.67;;;;;29.72;39.19;102316.75;5057656;28;45393;-74
2023/06/23 06:59:35;;;;;;;;;3.67;3.67;;;;;29.73;39.23;102313.06;5057294;28;45994;-74
2023/06/23 07:02:01;;;;;;;;;5.00;5.00;;;;;29.74;39.36;102321.94;5060222;27;45374;-74
2023/06/23 07:04:28;;;;;;;;;3.33;3.33;;;;;29.73;39.18;102322.94;5077632;27;45340;-74
2023/06/23 07:06:54;;;;;;;;;3.00;3.00;;;;;29.71;38.98;102331.19;5077839;28;45343;-74
2023/06/23 07:09:19;;;;;;;;;3.33;3.00;;;;;29.73;39.36;102334.50;5077533;28;46252;-74
2023/06/23 07:11:48;;;;;;;;;2.67;2.67;;;;;29.72;39.25;102337.38;5077611;28;45282;-74
2023/06/23 07:14:14;;;;;;;;;6.67;5.00;;;;;29.77;39.42;102344.84;5077829;27;45338;-73
2023/06/23 07:16:39;;;;;;;;;3.67;3.67;;;;;29.77;39.07;102347.53;5077372;28;45249;-74
2023/06/23 07:19:05;;;;;;;;;5.33;3.67;;;;;29.82;39.37;102350.44;5077181;28;45277;-74
2023/06/23 07:21:30;;;;;;;;;3.33;3.33;;;;;29.84;39.30;102357.28;5077386;28;45471;-74
2023/06/23 07:23:55;;;;;;;;;4.67;4.67;;;;;29.86;39.21;102362.44;5077531;28;45328;-73
2023/06/23 07:26:20;;;;;;;;;3.33;3.33;;;;;29.88;39.03;102370.28;5077530;28;45328;-74
2023/06/23 07:28:46;;;;;;;;;4.00;3.67;;;;;29.90;39.33;102366.38;5077356;28;45374;-74
2023/06/23 07:31:11;;;;;;;;;4.00;3.67;;;;;29.91;39.22;102364.50;5077084;28;45396;-74
2023/06/23 07:33:39;;;;;;;;;5.50;4.50;;;;;29.94;38.99;102372.19;5059334;28;45340;-74
2023/06/23 07:36:04;;;;;;;;;3.33;3.33;;;;;29.95;39.19;102371.16;5077399;28;45539;-73
2023/06/23 07:38:30;;;;;;;;;3.67;3.67;;;;;29.94;39.08;102364.97;5076997;28;46097;-73
2023/06/23 07:40:55;;;;;;;;;5.67;4.67;;;;;29.96;39.01;102370.13;5077233;28;45487;-73
2023/06/23 07:43:20;;;;;;;;;4.00;4.00;;;;;29.95;39.08;102376.53;5077332;28;45324;-74
2023/06/23 07:45:46;;;;;;;;;4.00;4.00;;;;;29.99;38.91;102380.47;5076897;28;45338;-73
2023/06/23 07:48:11;;;;;;;;;4.00;4.00;;;;;29.99;39.03;102368.88;5077067;28;45549;-74
2023/06/23 07:50:36;;;;;;;;;4.33;4.33;;;;;30.00;38.94;102371.41;5070132;28;47915;-73
2023/06/23 07:53:02;;;;;;;;;4.67;4.67;;;;;30.01;39.02;102367.66;5056961;28;45428;-73
2023/06/23 07:55:27;;;;;;;;;4.00;4.00;;;;;30.01;38.77;102361.47;5056810;28;45450;-73
2023/06/23 07:57:52;;;;;;;;;5.33;5.33;;;;;30.05;39.15;102365.44;5056499;28;45320;-74
2023/06/23 08:00:18;;;;;;;;;5.00;3.67;;;;;30.02;38.95;102363.97;5056330;28;45372;-73
2023/06/23 08:02:43;;;;;;;;;4.67;4.67;;;;;30.06;39.27;102372.44;5064760;28;45371;-74
2023/06/23 08:05:09;;;;;;;;;5.00;4.00;;;;;30.06;39.02;102369.75;5076887;28;45675;-73
2023/06/23 08:07:35;;;;;;;;;4.00;4.00;;;;;30.07;39.05;102372.25;5076712;28;45407;-74
2023/06/23 08:10:00;;;;;;;;;3.00;3.00;;;;;30.05;38.73;102376.16;5076671;28;45367;-74
2023/06/23 08:12:26;;;;;;;;;5.00;3.67;;;;;30.10;39.04;102378.25;5076838;28;45378;-74
2023/06/23 08:14:51;;;;;;;;;4.00;4.00;;;;;30.11;39.04;102374.53;5076323;28;45353;-73
2023/06/23 08:17:16;;;;;;;;;6.00;6.00;;;;;30.11;39.06;102372.66;5076522;28;46351;-72
2023/06/23 08:19:43;;;;;;;;;5.67;4.33;;;;;30.11;38.83;102369.97;5076622;28;45348;-74
2023/06/23 08:22:09;;;;;;;;;8.33;8.33;;;;;30.09;38.25;102361.31;5076881;28;45420;-71
2023/06/23 08:24:34;;;;;;;;;13.33;12.33;;;;;30.04;38.14;102366.44;5055257;28;45323;-71
2023/06/23 08:26:59;;;;;;;;;14.00;13.00;;;;;29.94;37.98;102364.97;5039413;28;46968;-71
2023/06/23 08:29:25;;;;;;;;;14.00;12.67;;;;;29.87;37.97;102371.31;5035451;28;45199;-73
2023/06/23 08:31:50;;;;;;;;;14.33;13.33;;;;;29.80;37.77;102380.13;5038325;28;45345;-71
2023/06/23 08:34:15;;;;;;;;;13.67;12.33;;;;;29.77;38.21;102377.84;5039893;28;45389;-71
2023/06/23 08:36:41;;;;;;;;;15.33;15.33;;;;;29.77;37.88;102380.53;5052315;28;46293;-71
2023/06/23 08:39:06;;;;;;;;;12.67;12.67;;;;;29.80;38.14;102380.13;5035896;28;45420;-71
2023/06/23 08:41:34;;;;;;;;;17.00;16.00;;;;;29.80;38.05;102381.97;5049508;28;45463;-70
2023/06/23 08:44:03;;;;;;;;;14.67;13.67;;;;;29.83;38.42;102392.31;5053269;28;45490;-72
2023/06/23 08:46:34;;;;;;;;;13.00;13.00;;;;;29.85;37.89;102390.28;5045136;28;46459;-72
2023/06/23 08:49:05;;;;;;;;;17.33;14.67;;;;;29.88;37.88;102389.03;5054933;28;45400;-71
2023/06/23 08:51:33;;;;;;;;;16.33;14.67;;;;;29.90;38.19;102389.69;5055037;28;45475;-71
2023/06/23 08:53:59;;;;;;;;;14.33;12.00;;;;;29.92;38.01;102388.47;5054880;28;45408;-71
2023/06/23 08:56:25;;;;;;;;;13.33;12.33;;;;;29.95;38.15;102384.56;5052789;28;46185;-70
2023/06/23 08:58:51;;;;;;;;;16.67;14.00;;;;;29.94;38.05;102377.53;5054507;28;45238;-71
2023/06/23 09:01:16;;;;;;;;;11.33;11.33;;;;;29.94;37.97;102381.06;5054827;28;45460;-71
2023/06/23 09:03:42;;;;;;;;;16.67;12.67;;;;;29.97;37.63;102382.50;5054951;28;46319;-72
2023/06/23 09:06:07;;;;;;;;;17.00;16.67;;;;;29.98;37.88;102378.78;5054795;28;45549;-69
2023/06/23 09:08:33;;;;;;;;;14.67;13.00;;;;;29.99;37.76;102379.63;5054844;28;45448;-72
2023/06/23 09:10:59;;;;;;;;;13.33;13.33;;;;;30.00;37.90;102376.75;5054758;28;45506;-71
2023/06/23 09:13:33;;;;;;;;;19.33;14.33;;;;;30.00;37.58;102374.06;5054649;28;45361;-71
2023/06/23 09:16:00;;;;;;;;;14.00;14.00;;;;;30.00;37.80;102371.41;5067595;28;46241;-71
2023/06/23 09:18:25;;;;;;;;;18.00;16.33;;;;;29.99;37.53;102363.53;5078481;27;45633;-70
2023/06/23 09:20:52;;;;;;;;;15.33;15.00;;;;;29.99;37.65;102366.22;5078588;27;45441;-70
2023/06/23 09:23:22;;;;;;;;;13.00;13.00;;;;;30.01;37.79;102374.88;5078603;28;45468;-70
2023/06/23 09:25:54;;;;;;;;;16.67;16.67;;;;;30.01;38.00;102377.56;5078323;27;46491;-72
2023/06/23 09:28:24;;;;;;;;;16.00;14.33;;;;;30.04;37.89;102382.53;5077975;28;45770;-71
2023/06/23 09:30:51;;;;;;;;;13.33;13.00;;;;;30.04;37.84;102379.84;5078357;28;45529;-72
2023/06/23 09:33:18;;;;;;;;;13.00;13.00;;;;;30.07;37.14;102382.16;5075853;28;45395;-71
2023/06/23 09:35:51;;;;;;;;;16.67;15.67;;;;;30.05;37.96;102378.84;5077030;28;46668;-72
2023/06/23 09:38:18;;;;;;;;;14.67;14.00;;;;;30.07;37.63;102393.72;5078067;28;45390;-72
2023/06/23 09:40:43;;;;;;;;;15.00;15.00;;;;;30.03;37.65;102370.97;5078122;27;45347;-71
2023/06/23 09:43:09;;;;;;;;;16.75;16.00;;;;;30.09;37.88;102382.78;5075358;28;45366;-71
2023/06/23 09:45:34;;;;;;;;;13.67;13.67;;;;;30.09;37.83;102376.56;5078519;28;45375;-72
2023/06/23 09:47:59;;;;;;;;;15.25;14.50;;;;;30.10;37.55;102379.06;5078022;28;45459;-71
2023/06/23 09:50:27;;;;;;;;;19.75;16.50;;;;;30.11;37.69;102377.22;5075365;28;45688;-73
2023/06/23 09:53:01;;;;;;;;;13.75;12.00;;;;;30.11;37.62;102374.53;5078331;28;45534;-73
2023/06/23 09:55:29;;;;;;;;;16.67;15.00;;;;;30.10;37.61;102379.06;5091107;27;46499;-73
2023/06/23 09:57:54;;;;;;;;;17.25;16.00;;;;;30.10;37.50;102380.91;5077521;28;45436;-73
2023/06/23 10:00:29;;;;;;;;;13.00;13.00;;;;;30.06;37.54;102370.59;5076618;28;45359;-73
2023/06/23 10:02:57;;;;;;;;;14.00;14.00;;;;;30.08;37.67;102375.75;5077980;27;45376;-72
2023/06/23 10:05:22;;;;;;;;;14.00;14.00;;;;;30.09;37.40;102379.25;5077630;28;47157;-72
2023/06/23 10:07:48;;;;;;;;;13.00;13.00;;;;;30.07;37.55;102371.41;5077915;28;45418;-73
2023/06/23 10:10:14;;;;;;;;;15.00;15.00;;;;;30.05;37.48;102371.63;5077853;28;45322;-73
2023/06/23 10:12:41;;;;;;;;;15.00;13.67;;;;;30.07;37.49;102380.31;5075696;28;45434;-72
2023/06/23 10:15:08;;;;;;;;;13.67;13.67;;;;;30.07;37.39;102382.97;5077176;27;46213;-73
2023/06/23 10:17:34;;;;;;;;;12.33;12.33;;;;;30.09;37.34;102380.09;5077452;28;45391;-71
2023/06/23 10:20:00;;;;;;;;;9.67;9.67;;;;;30.09;37.52;102385.47;5074693;28;45362;-72
2023/06/23 10:22:26;;;;;;;;;12.67;12.67;;;;;30.09;37.59;102382.78;5077765;28;45599;-72
2023/06/23 10:24:53;;;;;;;;;11.00;11.00;;;;;30.08;37.80;102386.50;5076885;28;47160;-72
2023/06/23 10:27:23;;;;;;;;;11.00;10.00;;;;;30.10;37.80;102381.75;5077117;27;45449;-72
2023/06/23 10:29:52;;;;;;;;;11.00;11.00;;;;;30.06;37.31;102375.13;5077742;27;45508;-72
2023/06/23 10:32:24;;;;;;;;;16.00;13.33;;;;;30.09;37.11;102393.50;5075998;28;45425;-73
2023/06/23 10:34:51;;;;;;;;;10.67;9.67;;;;;30.01;37.93;102366.81;5077157;28;45349;-73
2023/06/23 10:37:22;;;;;;;;;12.67;11.67;;;;;30.06;37.72;102381.31;5077204;28;45420;-73
2023/06/23 10:39:51;;;;;;;;;11.33;11.33;;;;;30.01;37.88;102374.88;5076996;28;45471;-71
2023/06/23 10:42:16;;;;;;;;;11.67;8.67;;;;;30.04;37.80;102375.31;5077176;28;45517;-73
2023/06/23 10:44:42;;;;;;;;;12.67;12.33;;;;;30.03;37.77;102387.06;5077381;28;45343;-73
2023/06/23 10:47:08;;;;;;;;;10.67;9.67;;;;;29.98;37.19;102365.38;5074810;28;45424;-74
2023/06/23 10:49:36;;;;;;;;;9.67;9.00;;;;;29.96;37.32;102378.16;5078356;27;45361;-72
2023/06/23 10:52:03;;;;;;;;;11.00;10.00;;;;;29.93;36.98;102379.38;5078361;27;45466;-74
2023/06/23 10:54:30;;;;;;;;;7.67;7.33;;;;;29.91;37.27;102375.25;5069665;27;45492;-73
2023/06/23 10:56:56;;;;;;;;;10.33;10.33;;;;;29.89;37.17;102377.31;5062249;28;45321;-73
2023/06/23 10:59:22;;;;;;;;;13.00;12.00;;;;;29.88;37.31;102376.47;5077082;27;45323;-72
2023/06/23 11:02:00;;;;;;;;;8.33;8.00;;;;;29.89;37.25;102380.81;5077241;27;45841;-72
2023/06/23 11:04:30;;;;;;;;;13.33;10.67;;;;;29.89;37.00;102366.56;5057163;28;47276;-72
2023/06/23 11:07:10;;;;;;;;;9.33;8.33;;;;;29.91;36.92;102367.19;5069572;28;45372;-72
2023/06/23 11:09:57;;;;;;;;;7.33;7.33;;;;;29.88;37.10;102365.75;5065053;28;46125;-72
2023/06/23 11:12:32;;;;;;;;;10.67;9.67;;;;;29.84;36.37;102373.38;5061066;27;45581;-72
2023/06/23 11:15:21;;;;;;;;;11.33;9.67;;;;;29.77;36.17;102367.13;5076679;28;46071;-73
2023/06/23 11:17:58;;;;;;;;;7.00;6.67;;;;;29.73;36.49;102369.38;5075523;28;45541;-73
2023/06/23 11:20:27;;;;;;;;;9.00;9.00;;;;;29.72;36.46;102369.56;5076997;28;45304;-73
2023/06/23 11:23:06;;;;;;;;;10.33;8.33;;;;;29.72;36.16;102370.38;5077253;27;45346;-73
2023/06/23 11:25:39;;;;;;;;;7.00;7.00;;;;;29.73;35.86;102366.69;5076431;28;46201;-73
2023/06/23 11:28:25;;;;;;;;;10.00;9.00;;;;;29.77;36.19;102359.06;5074202;27;45483;-73